Al Hoceima, Morocco
Current Conditions -  °F | °C
As of 8:00 PM on Sunday 21 Dec 2014 (Local Time) from GMTA Reporting Station
Broken Clouds Broken Clouds  
Wind Chill: 63°   Ceiling: 3300
Heat Index: 63°   Visibility: 5mi
Dew Point: 54°   Wind: 9mph
Humidity: 72%   Direction: 100°E
Pressure: 30.39"   Gusts: NA
Location:  35.26°N, 3.94°W
Report Text: GMTA 211900Z 10008KT 8000 SCT020 BKN033 17/12 Q1029 NOSIG
Loading
Personal Weather Stations






























Interactive Weather Map New forecast layout! Learn more

10-Day Weather Forecast

Advertisements
Track Severe Weather on mobile